createdAt,value
2023-04-22T00:02:23.398Z,3.27
2023-04-22T00:04:51.622Z,3.40
2023-04-22T00:07:21.193Z,3.30
2023-04-22T00:09:49.010Z,2.27
2023-04-22T00:12:16.846Z,2.63
2023-04-22T00:14:44.663Z,4.00
2023-04-22T00:17:12.840Z,4.30
2023-04-22T00:19:41.058Z,4.20
2023-04-22T00:22:09.026Z,3.40
2023-04-22T00:24:38.165Z,3.63
2023-04-22T00:27:05.995Z,3.60
2023-04-22T00:29:33.755Z,3.80
2023-04-22T00:32:01.590Z,3.60
2023-04-22T00:34:29.375Z,3.50
2023-04-22T00:36:57.144Z,3.20
2023-04-22T00:39:24.932Z,3.37
2023-04-22T00:41:54.578Z,2.97
2023-04-22T00:44:23.416Z,3.77
2023-04-22T00:46:52.573Z,3.57
2023-04-22T00:49:21.412Z,3.60
2023-04-22T00:51:49.219Z,3.90
2023-04-22T00:54:17.011Z,4.00
2023-04-22T00:56:46.087Z,3.70
2023-04-22T00:59:15.246Z,3.43
2023-04-22T01:01:44.310Z,4.17
2023-04-22T01:04:14.393Z,4.03
2023-04-22T01:06:43.233Z,4.13
2023-04-22T01:09:11.207Z,3.80
2023-04-22T01:11:39.116Z,4.00
2023-04-22T01:14:07.090Z,4.00
2023-04-22T01:16:38.998Z,3.60
2023-04-22T01:19:08.233Z,4.30
2023-04-22T01:21:37.530Z,3.90
2023-04-22T01:24:07.425Z,3.73
2023-04-22T01:26:35.409Z,4.33
2023-04-22T01:29:03.369Z,4.23
2023-04-22T01:31:31.616Z,4.73
2023-04-22T01:34:00.276Z,4.70
2023-04-22T01:36:28.433Z,4.97
2023-04-22T01:38:56.597Z,4.60
2023-04-22T01:41:26.058Z,4.07
2023-04-22T01:43:54.766Z,4.70
2023-04-22T01:46:23.006Z,4.20
2023-04-22T01:48:51.615Z,3.77
2023-04-22T01:51:21.276Z,4.40
2023-04-22T01:53:49.660Z,4.20
2023-04-22T01:56:17.670Z,4.03
2023-04-22T01:58:46.777Z,3.80
2023-04-22T02:01:14.620Z,3.80
2023-04-22T02:03:42.789Z,3.83
2023-04-22T02:06:10.635Z,3.27
2023-04-22T02:08:38.499Z,3.53
2023-04-22T02:11:06.576Z,3.63
2023-04-22T02:13:37.870Z,3.90
2023-04-22T02:16:08.243Z,3.70
2023-04-22T02:18:36.147Z,3.80
2023-04-22T02:21:04.196Z,3.70
2023-04-22T02:23:32.131Z,3.53
2023-04-22T02:25:59.873Z,4.10
2023-04-22T02:28:27.613Z,4.03
2023-04-22T02:30:55.440Z,3.87
2023-04-22T02:33:24.716Z,3.97
2023-04-22T02:35:52.514Z,3.97
2023-04-22T02:38:20.635Z,3.97
2023-04-22T02:40:48.457Z,3.80
2023-04-22T02:43:16.573Z,3.60
2023-04-22T02:45:44.363Z,4.10
2023-04-22T02:48:12.168Z,4.07
2023-04-22T02:50:41.334Z,4.10
2023-04-22T02:53:10.008Z,4.53
2023-04-22T02:55:37.794Z,4.90
2023-04-22T02:58:05.618Z,4.20
2023-04-22T03:00:33.491Z,3.93
2023-04-22T03:03:01.437Z,3.90
2023-04-22T03:05:29.459Z,4.40
2023-04-22T03:07:58.564Z,4.50
2023-04-22T03:10:26.312Z,4.60
2023-04-22T03:12:54.103Z,4.20
2023-04-22T03:15:22.104Z,4.33
2023-04-22T03:17:50.186Z,3.90
2023-04-22T03:20:18.376Z,4.30
2023-04-22T03:22:46.138Z,4.17
2023-04-22T03:25:15.384Z,3.90
2023-04-22T03:27:43.187Z,4.10
2023-04-22T03:30:11.537Z,4.27
2023-04-22T03:32:39.281Z,4.50
2023-04-22T03:35:07.966Z,4.13
2023-04-22T03:37:35.774Z,4.17
2023-04-22T03:40:04.178Z,4.60
2023-04-22T03:42:33.261Z,4.10
2023-04-22T03:45:01.038Z,4.50
2023-04-22T03:47:28.995Z,4.43
2023-04-22T03:49:56.766Z,3.97
2023-04-22T03:52:24.606Z,3.90
2023-04-22T03:54:52.371Z,3.60
2023-04-22T03:57:20.195Z,4.13
2023-04-22T03:59:49.316Z,3.90
2023-04-22T04:02:17.182Z,3.73
2023-04-22T04:04:45.159Z,4.13
2023-04-22T04:07:13.138Z,4.13
2023-04-22T04:09:41.137Z,4.27
2023-04-22T04:12:09.332Z,4.73
2023-04-22T04:14:37.135Z,3.63
2023-04-22T04:17:09.355Z,3.50
2023-04-22T04:19:37.428Z,3.50
2023-04-22T04:22:05.355Z,3.40
2023-04-22T04:24:33.520Z,3.70
2023-04-22T04:27:02.044Z,3.40
2023-04-22T04:29:29.892Z,3.03
2023-04-22T04:31:57.637Z,3.13
2023-04-22T04:34:26.747Z,4.10
2023-04-22T04:36:54.634Z,3.33
2023-04-22T04:39:22.402Z,3.10
2023-04-22T04:41:50.211Z,3.63
2023-04-22T04:44:17.993Z,3.47
2023-04-22T04:46:46.662Z,3.00
2023-04-22T04:49:14.665Z,3.67
2023-04-22T04:51:43.814Z,3.23
2023-04-22T04:54:11.591Z,3.50
2023-04-22T04:56:39.519Z,3.43
2023-04-22T04:59:07.347Z,3.20
2023-04-22T05:01:35.196Z,3.03
2023-04-22T05:04:03.167Z,3.40
2023-04-22T05:06:31.345Z,3.20
2023-04-22T05:09:00.629Z,3.57
2023-04-22T05:11:28.435Z,3.30
2023-04-22T05:13:56.206Z,3.07
2023-04-22T05:16:24.156Z,3.87
2023-04-22T05:18:51.985Z,3.20
2023-04-22T05:21:20.316Z,3.30
2023-04-22T05:23:48.611Z,3.70
2023-04-22T05:26:18.123Z,3.30
2023-04-22T05:28:45.896Z,3.13
2023-04-22T05:31:13.657Z,3.67
2023-04-22T05:33:41.428Z,3.63
2023-04-22T05:36:09.338Z,3.60
2023-04-22T05:38:37.085Z,3.20
2023-04-22T05:41:04.927Z,3.60
2023-04-22T05:43:34.049Z,3.10
2023-04-22T05:46:01.925Z,3.70
2023-04-22T05:48:29.735Z,3.60
2023-04-22T05:50:57.520Z,3.20
2023-04-22T05:53:25.302Z,3.70
2023-04-22T05:55:53.222Z,3.30
2023-04-22T05:58:20.987Z,3.53
2023-04-22T06:00:50.149Z,3.80
2023-04-22T06:03:18.124Z,3.27
2023-04-22T06:05:46.109Z,4.40
2023-04-22T06:08:13.942Z,5.17
2023-04-22T06:10:41.748Z,5.10
2023-04-22T06:13:09.558Z,5.30
2023-04-22T06:15:37.434Z,4.93
2023-04-22T06:18:06.714Z,5.30
2023-04-22T06:20:35.822Z,5.50
2023-04-22T06:23:05.270Z,5.83
2023-04-22T06:25:33.478Z,5.37
2023-04-22T06:28:01.302Z,5.43
2023-04-22T06:30:29.238Z,6.40
2023-04-22T06:32:57.255Z,6.10
2023-04-22T06:35:26.515Z,6.00
2023-04-22T06:37:54.404Z,5.80
2023-04-22T06:40:22.294Z,6.20
2023-04-22T06:42:50.144Z,6.03
2023-04-22T06:45:18.125Z,6.40
2023-04-22T06:47:46.030Z,5.73
2023-04-22T06:50:13.868Z,5.60
2023-04-22T06:52:43.207Z,6.43
2023-04-22T06:55:11.706Z,6.50
2023-04-22T06:57:39.724Z,8.30
2023-04-22T07:00:09.399Z,8.03
2023-04-22T07:02:37.257Z,9.17
2023-04-22T07:05:05.502Z,8.87
2023-04-22T07:07:33.281Z,9.13
2023-04-22T07:10:02.391Z,8.13
2023-04-22T07:12:30.148Z,8.37
2023-04-22T07:14:58.089Z,8.83
2023-04-22T07:17:25.893Z,8.80
2023-04-22T07:19:54.251Z,9.60
2023-04-22T07:22:21.998Z,9.90
2023-04-22T07:24:49.767Z,8.87
2023-04-22T07:27:18.940Z,8.37
2023-04-22T07:29:46.801Z,8.67
2023-04-22T07:32:14.951Z,8.30
2023-04-22T07:34:42.796Z,8.30
2023-04-22T07:37:10.796Z,8.83
2023-04-22T07:39:38.970Z,8.20
2023-04-22T07:42:07.317Z,8.70
2023-04-22T07:44:38.853Z,7.20
2023-04-22T07:47:08.368Z,7.43
2023-04-22T07:49:36.396Z,7.57
2023-04-22T07:52:04.301Z,7.40
2023-04-22T07:54:32.116Z,7.20
2023-04-22T07:56:59.871Z,6.73
2023-04-22T07:59:27.650Z,6.87
2023-04-22T08:01:56.791Z,6.80
2023-04-22T08:04:25.288Z,5.93
2023-04-22T08:06:53.272Z,7.10
2023-04-22T08:09:21.090Z,7.07
2023-04-22T08:11:48.858Z,6.90
2023-04-22T08:14:16.663Z,6.57
2023-04-22T08:16:44.754Z,6.60
2023-04-22T08:19:13.912Z,6.20
2023-04-22T08:21:41.708Z,5.70
2023-04-22T08:24:09.557Z,5.50
2023-04-22T08:26:38.216Z,5.60
2023-04-22T08:29:06.105Z,6.60
2023-04-22T08:31:34.779Z,6.60
2023-04-22T08:34:02.695Z,5.80
2023-04-22T08:36:32.328Z,6.47
2023-04-22T08:39:00.212Z,5.27
2023-04-22T08:41:28.333Z,6.17
2023-04-22T08:43:57.638Z,6.17
2023-04-22T08:46:26.772Z,5.30
2023-04-22T08:48:55.528Z,5.93
2023-04-22T08:51:23.963Z,6.27
2023-04-22T08:53:53.111Z,6.20
2023-04-22T08:56:22.202Z,5.60
2023-04-22T08:58:50.095Z,5.00
2023-04-22T09:01:18.327Z,6.17
2023-04-22T09:03:47.131Z,5.80
2023-04-22T09:06:15.859Z,5.47
2023-04-22T09:08:44.308Z,5.80
2023-04-22T09:11:13.541Z,5.60
2023-04-22T09:13:41.737Z,5.50
2023-04-22T09:16:09.576Z,4.67
2023-04-22T09:18:41.957Z,5.10
2023-04-22T09:21:09.970Z,4.20
2023-04-22T09:23:49.169Z,3.67
2023-04-22T09:26:20.864Z,3.43
2023-04-22T09:28:52.548Z,4.00
2023-04-22T09:31:21.532Z,3.70
2023-04-22T09:33:52.034Z,3.90
2023-04-22T09:36:23.416Z,3.77
2023-04-22T09:38:55.372Z,3.40
2023-04-22T09:41:31.380Z,4.00
2023-04-22T09:44:00.618Z,4.43
2023-04-22T09:46:30.809Z,4.70
2023-04-22T09:49:00.516Z,4.27
2023-04-22T09:51:30.594Z,4.70
2023-04-22T09:54:00.037Z,4.23
2023-04-22T09:56:48.357Z,4.23
2023-04-22T09:59:21.371Z,3.67
2023-04-22T10:01:49.750Z,4.17
2023-04-22T10:04:21.278Z,3.00
2023-04-22T10:06:50.120Z,3.60
2023-04-22T10:09:20.475Z,3.70
2023-04-22T10:11:50.603Z,4.20
2023-04-22T10:14:19.183Z,3.83
2023-04-22T10:16:48.441Z,6.20
2023-04-22T10:19:19.723Z,5.07
2023-04-22T10:21:49.450Z,5.40
2023-04-22T10:24:18.644Z,5.10
2023-04-22T10:26:53.063Z,4.20
2023-04-22T10:29:23.127Z,4.30
2023-04-22T10:31:58.325Z,3.83
2023-04-22T10:34:27.198Z,3.57
2023-04-22T10:36:57.223Z,4.23
2023-04-22T10:39:26.068Z,3.70
2023-04-22T10:41:58.525Z,3.93
2023-04-22T10:44:31.152Z,3.67
2023-04-22T10:47:02.331Z,3.60
2023-04-22T10:49:34.717Z,3.67
2023-04-22T10:52:03.992Z,4.13
2023-04-22T10:54:57.422Z,3.00
2023-04-22T10:57:48.750Z,3.53
2023-04-22T11:00:53.109Z,3.70
2023-04-22T11:03:28.930Z,4.20
2023-04-22T11:06:15.794Z,5.40
2023-04-22T11:08:46.523Z,3.70
2023-04-22T11:11:14.631Z,4.50
2023-04-22T11:13:44.122Z,4.50
2023-04-22T11:16:12.506Z,3.97
2023-04-22T11:18:40.628Z,3.30
2023-04-22T11:21:09.362Z,3.50
2023-04-22T11:23:37.287Z,3.33
2023-04-22T11:26:07.053Z,3.70
2023-04-22T11:28:34.983Z,3.33
2023-04-22T11:31:06.415Z,3.70
2023-04-22T11:33:35.434Z,3.10
2023-04-22T11:36:03.572Z,3.20
2023-04-22T11:38:31.513Z,3.67
2023-04-22T11:40:59.415Z,2.93
2023-04-22T11:43:27.388Z,6.80
2023-04-22T11:45:57.923Z,9.97
2023-04-22T11:48:27.313Z,11.60
2023-04-22T11:51:09.892Z,3.87
2023-04-22T11:53:39.459Z,3.23
2023-04-22T11:56:07.318Z,2.70
2023-04-22T11:58:39.794Z,3.73
2023-04-22T12:01:07.592Z,2.63
2023-04-22T12:03:36.884Z,3.20
2023-04-22T12:06:06.282Z,2.83
2023-04-22T12:08:39.693Z,2.93
2023-04-22T12:11:09.353Z,3.20
2023-04-22T12:13:43.106Z,3.20
2023-04-22T12:16:13.499Z,3.10
2023-04-22T12:18:49.302Z,3.10
2023-04-22T12:21:19.968Z,3.07
2023-04-22T12:23:49.315Z,3.10
2023-04-22T12:26:18.146Z,3.00
2023-04-22T12:28:47.325Z,2.60
2023-04-22T12:31:15.928Z,3.17
2023-04-22T12:33:46.620Z,2.50
2023-04-22T12:36:14.541Z,3.13
2023-04-22T12:38:42.683Z,3.00
2023-04-22T12:41:10.729Z,5.60
2023-04-22T12:43:39.437Z,3.53
2023-04-22T12:46:08.722Z,6.30
2023-04-22T12:48:37.468Z,3.73
2023-04-22T12:51:07.427Z,3.77
2023-04-22T12:53:35.856Z,3.77
2023-04-22T12:56:04.059Z,2.83
2023-04-22T12:58:31.940Z,2.80
2023-04-22T13:00:59.736Z,3.17
2023-04-22T13:03:27.760Z,2.60
2023-04-22T13:05:56.190Z,2.83
2023-04-22T13:08:25.396Z,2.90
2023-04-22T13:10:53.565Z,2.60
2023-04-22T13:13:21.360Z,2.60
2023-04-22T13:15:53.322Z,2.70
2023-04-22T13:18:22.209Z,2.80
2023-04-22T13:20:50.077Z,3.47
2023-04-22T13:23:19.760Z,3.03
2023-04-22T13:25:48.957Z,3.07
2023-04-22T13:28:16.827Z,2.70
2023-04-22T13:30:44.631Z,3.27
2023-04-22T13:33:12.445Z,3.60
2023-04-22T13:35:40.844Z,3.03
2023-04-22T13:38:08.865Z,2.93
2023-04-22T13:40:36.794Z,3.40
2023-04-22T13:43:06.162Z,4.20
2023-04-22T13:45:33.982Z,3.37
2023-04-22T13:48:01.867Z,3.07
2023-04-22T13:50:29.742Z,2.90
2023-04-22T13:52:57.560Z,3.37
2023-04-22T13:55:26.650Z,3.40
2023-04-22T13:57:54.537Z,3.13
2023-04-22T14:00:23.698Z,3.30
2023-04-22T14:02:51.652Z,3.00
2023-04-22T14:05:19.598Z,3.00
2023-04-22T14:07:47.404Z,2.60
2023-04-22T14:10:17.754Z,3.27
2023-04-22T14:12:45.892Z,3.10
2023-04-22T14:15:13.956Z,2.87
2023-04-22T14:17:43.134Z,3.30
2023-04-22T14:20:11.761Z,3.27
2023-04-22T14:22:39.569Z,3.20
2023-04-22T14:25:08.590Z,2.90
2023-04-22T14:27:36.457Z,2.77
2023-04-22T14:30:06.037Z,2.77
2023-04-22T14:32:34.110Z,3.00
2023-04-22T14:35:03.266Z,2.63
2023-04-22T14:37:32.168Z,2.40
2023-04-22T14:40:00.348Z,2.47
2023-04-22T14:42:28.909Z,2.80
2023-04-22T14:44:56.938Z,3.17
2023-04-22T14:47:24.869Z,2.93
2023-04-22T14:49:52.698Z,3.03
2023-04-22T14:52:22.015Z,2.83
2023-04-22T14:54:51.982Z,3.00
2023-04-22T14:57:20.163Z,2.80
2023-04-22T14:59:47.964Z,2.43
2023-04-22T15:02:16.760Z,2.97
2023-04-22T15:04:44.811Z,2.90
2023-04-22T15:07:12.683Z,2.83
2023-04-22T15:09:42.221Z,3.07
2023-04-22T15:12:10.260Z,2.60
2023-04-22T15:14:38.094Z,2.50
2023-04-22T15:17:06.492Z,2.60
2023-04-22T15:19:34.389Z,2.27
2023-04-22T15:22:02.478Z,2.67
2023-04-22T15:24:30.320Z,2.73
2023-04-22T15:27:00.623Z,2.87
2023-04-22T15:29:29.302Z,2.50
2023-04-22T15:31:57.593Z,2.13
2023-04-22T15:34:26.108Z,2.80
2023-04-22T15:36:54.272Z,2.40
2023-04-22T15:39:22.193Z,2.90
2023-04-22T15:41:50.115Z,2.40
2023-04-22T15:44:19.475Z,2.67
2023-04-22T15:46:47.468Z,2.77
2023-04-22T15:49:16.625Z,2.30
2023-04-22T15:51:44.495Z,2.50
2023-04-22T15:54:13.528Z,2.50
2023-04-22T15:56:41.738Z,2.40
2023-04-22T15:59:09.626Z,2.00
2023-04-22T16:01:40.576Z,2.47
2023-04-22T16:04:08.889Z,2.20
2023-04-22T16:06:38.076Z,2.23
2023-04-22T16:09:06.561Z,2.20
2023-04-22T16:11:34.347Z,2.13
2023-04-22T16:14:02.141Z,2.20
2023-04-22T16:16:30.081Z,2.47
2023-04-22T16:18:59.465Z,2.83
2023-04-22T16:21:28.599Z,2.43
2023-04-22T16:23:56.452Z,2.63
2023-04-22T16:26:24.283Z,2.37
2023-04-22T16:28:52.193Z,2.83
2023-04-22T16:31:22.894Z,2.20
2023-04-22T16:33:51.229Z,2.50
2023-04-22T16:36:20.480Z,2.37
2023-04-22T16:38:48.337Z,2.93
2023-04-22T16:41:16.238Z,2.10
2023-04-22T16:43:44.386Z,3.03
2023-04-22T16:46:12.458Z,2.67
2023-04-22T16:48:40.534Z,2.80
2023-04-22T16:51:08.448Z,2.57
2023-04-22T16:53:37.990Z,2.87
2023-04-22T16:56:06.285Z,2.73
2023-04-22T16:58:34.126Z,2.40
2023-04-22T17:01:01.925Z,2.60
2023-04-22T17:03:29.938Z,2.70
2023-04-22T17:05:57.796Z,2.20
2023-04-22T17:08:25.720Z,3.90
2023-04-22T17:10:54.851Z,2.77
2023-04-22T17:13:22.679Z,2.30
2023-04-22T17:15:50.479Z,2.17
2023-04-22T17:18:18.326Z,2.77
2023-04-22T17:20:46.103Z,2.40
2023-04-22T17:23:13.926Z,2.60
2023-04-22T17:25:41.721Z,2.40
2023-04-22T17:28:11.521Z,2.47
2023-04-22T17:30:39.668Z,2.80
2023-04-22T17:33:07.514Z,2.60
2023-04-22T17:35:35.382Z,2.10
2023-04-22T17:38:03.175Z,3.27
2023-04-22T17:40:31.016Z,2.43
2023-04-22T17:42:58.812Z,2.90
2023-04-22T17:45:27.946Z,3.47
2023-04-22T17:47:55.816Z,3.53
2023-04-22T17:50:23.821Z,3.43
2023-04-22T17:52:51.665Z,3.97
2023-04-22T17:55:19.707Z,3.07
2023-04-22T17:57:47.518Z,2.60
2023-04-22T18:00:16.882Z,2.70
2023-04-22T18:02:46.326Z,2.47
2023-04-22T18:05:14.533Z,2.70
2023-04-22T18:07:42.440Z,2.77
2023-04-22T18:10:11.742Z,3.80
2023-04-22T18:12:39.899Z,3.10
2023-04-22T18:15:09.085Z,2.63
2023-04-22T18:17:36.877Z,3.47
2023-04-22T18:20:17.655Z,3.50
2023-04-22T18:22:47.674Z,3.60
2023-04-22T18:25:15.929Z,2.93
2023-04-22T18:27:43.829Z,2.97
2023-04-22T18:30:12.133Z,3.47
2023-04-22T18:32:40.174Z,4.20
2023-04-22T18:35:10.339Z,3.50
2023-04-22T18:37:38.146Z,3.07
2023-04-22T18:40:07.304Z,4.03
2023-04-22T18:42:35.280Z,3.53
2023-04-22T18:45:04.878Z,3.10
2023-04-22T18:47:33.440Z,3.60
2023-04-22T18:50:01.310Z,3.20
2023-04-22T18:52:30.529Z,3.23
2023-04-22T18:54:58.319Z,3.27
2023-04-22T18:57:26.444Z,3.00
2023-04-22T18:59:54.989Z,3.00
2023-04-22T19:02:23.001Z,2.30
2023-04-22T19:04:51.012Z,2.57
2023-04-22T19:07:18.921Z,2.60
2023-04-22T19:09:48.123Z,2.80
2023-04-22T19:12:18.891Z,2.60
2023-04-22T19:14:48.096Z,2.93
2023-04-22T19:17:16.075Z,3.37
2023-04-22T19:19:45.362Z,2.80
2023-04-22T19:22:13.577Z,2.73
2023-04-22T19:24:41.495Z,2.90
2023-04-22T19:27:12.495Z,3.20
2023-04-22T19:29:41.617Z,3.20
2023-04-22T19:32:10.865Z,2.33
2023-04-22T19:34:39.005Z,2.80
2023-04-22T19:37:06.887Z,3.23
2023-04-22T19:39:34.688Z,3.40
2023-04-22T19:42:03.212Z,2.90
2023-04-22T19:44:32.477Z,3.37
2023-04-22T19:47:00.764Z,3.17
2023-04-22T19:49:31.081Z,2.73
2023-04-22T19:51:59.603Z,3.60
2023-04-22T19:54:30.098Z,2.97
2023-04-22T19:56:58.931Z,2.77
2023-04-22T19:59:30.978Z,2.40
2023-04-22T20:02:01.033Z,3.03
2023-04-22T20:04:29.448Z,2.97
2023-04-22T20:07:01.420Z,2.97
2023-04-22T20:09:32.716Z,3.10
2023-04-22T20:12:01.226Z,3.27
2023-04-22T20:14:29.609Z,2.80
2023-04-22T20:16:57.765Z,2.83
2023-04-22T20:19:27.624Z,2.77
2023-04-22T20:21:57.270Z,2.70
2023-04-22T20:24:25.679Z,2.70
2023-04-22T20:26:53.788Z,3.23
2023-04-22T20:29:22.980Z,2.73
2023-04-22T20:31:51.149Z,2.93
2023-04-22T20:34:19.289Z,2.90
2023-04-22T20:36:49.447Z,2.77
2023-04-22T20:39:18.086Z,3.47
2023-04-22T20:41:46.732Z,3.30
2023-04-22T20:44:15.098Z,2.70
2023-04-22T20:46:42.954Z,3.27
2023-04-22T20:49:10.776Z,2.87
2023-04-22T20:51:38.772Z,3.40
2023-04-22T20:54:21.319Z,2.90
2023-04-22T20:56:55.801Z,2.77
2023-04-22T20:59:23.570Z,3.30
2023-04-22T21:01:52.305Z,3.20
2023-04-22T21:04:21.191Z,3.40
2023-04-22T21:06:51.017Z,3.13
2023-04-22T21:09:21.665Z,3.20
2023-04-22T21:11:51.097Z,3.43
2023-04-22T21:14:19.208Z,3.30
2023-04-22T21:16:54.054Z,3.27
2023-04-22T21:19:22.334Z,3.73
2023-04-22T21:21:52.055Z,2.97
2023-04-22T21:24:22.633Z,2.90
2023-04-22T21:26:50.836Z,2.97
2023-04-22T21:29:19.211Z,3.23
2023-04-22T21:31:57.624Z,3.00
2023-04-22T21:34:33.167Z,3.00
2023-04-22T21:37:01.187Z,2.80
2023-04-22T21:39:32.900Z,3.07
2023-04-22T21:42:02.365Z,3.27
2023-04-22T21:44:30.306Z,3.43
2023-04-22T21:46:58.101Z,3.27
2023-04-22T21:49:26.060Z,3.87
2023-04-22T21:51:53.962Z,3.03
2023-04-22T21:54:21.832Z,3.53
2023-04-22T21:56:51.597Z,3.00
2023-04-22T21:59:19.379Z,3.30
2023-04-22T22:01:47.478Z,3.00
2023-04-22T22:04:16.346Z,3.27
2023-04-22T22:06:44.585Z,3.13
2023-04-22T22:09:12.708Z,3.47
2023-04-22T22:11:40.594Z,3.33
2023-04-22T22:14:09.763Z,3.10
2023-04-22T22:16:38.213Z,3.30
2023-04-22T22:19:06.418Z,3.60
2023-04-22T22:21:34.201Z,2.87
2023-04-22T22:24:01.988Z,3.53
2023-04-22T22:26:30.069Z,3.73
2023-04-22T22:28:57.880Z,3.03
2023-04-22T22:31:27.507Z,3.47
2023-04-22T22:33:55.318Z,3.03
2023-04-22T22:36:23.546Z,3.03
2023-04-22T22:38:51.361Z,3.57
2023-04-22T22:41:19.154Z,3.20
2023-04-22T22:43:46.931Z,2.73
2023-04-22T22:46:14.754Z,2.93
2023-04-22T22:48:43.915Z,2.63
2023-04-22T22:51:14.512Z,2.80
2023-04-22T22:53:43.340Z,2.83
2023-04-22T22:56:11.182Z,3.10
2023-04-22T22:58:40.740Z,3.17
2023-04-22T23:01:08.584Z,3.03
2023-04-22T23:03:37.252Z,2.63
2023-04-22T23:06:07.716Z,2.97
2023-04-22T23:08:35.684Z,2.40
2023-04-22T23:11:03.466Z,2.60
2023-04-22T23:13:31.248Z,2.90
2023-04-22T23:15:59.219Z,2.50
2023-04-22T23:18:27.905Z,3.13
2023-04-22T23:20:55.954Z,2.60
2023-04-22T23:23:25.412Z,2.70
2023-04-22T23:25:53.693Z,2.53
2023-04-22T23:28:21.980Z,2.60
2023-04-22T23:30:51.476Z,2.40
2023-04-22T23:33:22.912Z,2.57
2023-04-22T23:35:52.904Z,2.40
2023-04-22T23:38:20.861Z,2.43
2023-04-22T23:40:49.986Z,3.00
2023-04-22T23:43:17.790Z,2.50
2023-04-22T23:45:46.021Z,2.20
2023-04-22T23:48:13.992Z,2.73
2023-04-22T23:50:41.820Z,2.70
2023-04-22T23:53:09.629Z,2.40
2023-04-22T23:55:38.243Z,2.77
2023-04-22T23:58:08.201Z,2.53
